createdAt,value
2019-03-23T00:00:23.642Z,82.10
2019-03-23T00:02:44.832Z,82.10
2019-03-23T00:05:07.137Z,82.60
2019-03-23T00:07:28.326Z,82.30
2019-03-23T00:09:49.542Z,82.10
2019-03-23T00:12:10.740Z,82.00
2019-03-23T00:14:31.933Z,82.00
2019-03-23T00:16:53.153Z,82.40
2019-03-23T00:19:14.370Z,82.80
2019-03-23T00:21:35.594Z,83.20
2019-03-23T00:23:56.902Z,83.50
2019-03-23T00:26:18.117Z,83.90
2019-03-23T00:28:39.310Z,83.80
2019-03-23T00:31:00.534Z,83.90
2019-03-23T00:33:21.735Z,84.20
2019-03-23T00:35:42.950Z,84.20
2019-03-23T00:38:04.168Z,84.00
2019-03-23T00:40:25.376Z,84.00
2019-03-23T00:42:46.683Z,83.90
2019-03-23T00:45:08.583Z,84.00
2019-03-23T00:47:29.769Z,84.30
2019-03-23T00:49:50.974Z,84.20
2019-03-23T00:52:12.170Z,84.40
2019-03-23T00:54:33.371Z,84.60
2019-03-23T00:56:54.554Z,84.80
2019-03-23T00:59:15.746Z,84.80
2019-03-23T01:01:37.190Z,84.90
2019-03-23T01:03:58.459Z,85.00
2019-03-23T01:06:19.666Z,85.30
2019-03-23T01:08:40.832Z,85.10
2019-03-23T01:11:02.036Z,85.30
2019-03-23T01:13:23.204Z,85.30
2019-03-23T01:15:44.401Z,85.30
2019-03-23T01:18:05.568Z,85.40
2019-03-23T01:20:26.768Z,85.50
2019-03-23T01:22:47.986Z,85.30
2019-03-23T01:25:09.972Z,85.30
2019-03-23T01:27:31.161Z,85.70
2019-03-23T01:29:52.334Z,86.20
2019-03-23T01:32:13.540Z,86.50
2019-03-23T01:34:35.993Z,87.00
2019-03-23T01:37:02.763Z,87.20
2019-03-23T01:39:20.270Z,88.00
2019-03-23T01:41:41.465Z,87.80
2019-03-23T01:44:03.699Z,88.20
2019-03-23T01:46:24.893Z,88.10
2019-03-23T01:48:46.082Z,88.10
2019-03-23T01:51:07.283Z,88.10
2019-03-23T01:53:28.473Z,87.80
2019-03-23T01:55:49.888Z,87.30
2019-03-23T01:58:11.951Z,87.50
2019-03-23T02:00:33.236Z,87.90
2019-03-23T02:02:54.852Z,88.00
2019-03-23T02:05:16.027Z,87.90
2019-03-23T02:07:37.213Z,87.90
2019-03-23T02:09:58.385Z,88.40
2019-03-23T02:12:19.592Z,88.60
2019-03-23T02:14:41.961Z,88.70
2019-03-23T02:17:03.144Z,88.80
2019-03-23T02:19:24.318Z,88.60
2019-03-23T02:21:46.513Z,88.60
2019-03-23T02:24:07.809Z,88.90
2019-03-23T02:26:29.003Z,89.20
2019-03-23T02:28:50.177Z,89.00
2019-03-23T02:31:11.374Z,89.80
2019-03-23T02:33:32.570Z,89.90
2019-03-23T02:35:53.753Z,89.80
2019-03-23T02:38:30.179Z,89.80
2019-03-23T02:40:51.339Z,90.00
2019-03-23T02:43:12.521Z,89.80
2019-03-23T02:45:34.008Z,89.70
2019-03-23T02:47:55.195Z,89.50
2019-03-23T02:50:16.365Z,89.90
2019-03-23T02:52:37.672Z,90.00
2019-03-23T02:54:58.837Z,90.10
2019-03-23T02:57:20.044Z,90.20
2019-03-23T02:59:42.326Z,90.00
2019-03-23T03:02:03.944Z,89.70
2019-03-23T03:04:25.236Z,89.50
2019-03-23T03:06:46.413Z,89.30
2019-03-23T03:09:07.591Z,89.70
2019-03-23T03:11:28.797Z,90.10
2019-03-23T03:13:50.004Z,90.20
2019-03-23T03:16:11.235Z,90.60
2019-03-23T03:18:32.514Z,90.90
2019-03-23T03:20:53.822Z,90.90
2019-03-23T03:23:15.022Z,90.90
2019-03-23T03:25:36.202Z,90.80
2019-03-23T03:27:57.412Z,90.80
2019-03-23T03:30:18.682Z,90.70
2019-03-23T03:32:40.007Z,90.60
2019-03-23T03:35:01.195Z,90.50
2019-03-23T03:37:22.448Z,90.50
2019-03-23T03:39:43.642Z,90.30
2019-03-23T03:42:04.824Z,90.20
2019-03-23T03:44:26.094Z,90.20
2019-03-23T03:46:47.371Z,90.50
2019-03-23T03:49:12.647Z,90.20
2019-03-23T03:51:31.645Z,90.20
2019-03-23T03:53:52.853Z,90.30
2019-03-23T03:56:14.151Z,90.60
2019-03-23T03:58:35.371Z,90.40
2019-03-23T04:00:56.664Z,90.60
2019-03-23T04:03:17.853Z,90.50
2019-03-23T04:05:39.028Z,90.60
2019-03-23T04:08:11.321Z,90.50
2019-03-23T04:10:24.428Z,90.40
2019-03-23T04:12:45.620Z,90.40
2019-03-23T04:15:20.976Z,90.50
2019-03-23T04:17:42.170Z,90.60
2019-03-23T04:20:05.860Z,90.50
2019-03-23T04:22:27.155Z,90.50
2019-03-23T04:24:48.335Z,90.50
2019-03-23T04:27:09.653Z,91.00
2019-03-23T04:29:32.322Z,90.50
2019-03-23T04:31:53.578Z,90.40
2019-03-23T04:34:14.774Z,90.40
2019-03-23T04:36:35.954Z,90.20
2019-03-23T04:38:58.349Z,90.30
2019-03-23T04:41:19.530Z,90.20
2019-03-23T04:43:40.739Z,90.10
2019-03-23T04:46:01.991Z,90.10
2019-03-23T04:48:23.230Z,90.00
2019-03-23T04:50:44.404Z,90.00
2019-03-23T04:53:06.402Z,90.00
2019-03-23T04:55:27.596Z,90.10
2019-03-23T04:57:48.808Z,90.10
2019-03-23T05:00:18.112Z,90.20
2019-03-23T05:05:41.628Z,90.00
2019-03-23T05:08:03.023Z,90.00
2019-03-23T05:10:24.216Z,90.00
2019-03-23T05:12:45.417Z,90.00
2019-03-23T05:15:08.858Z,90.10
2019-03-23T05:17:30.051Z,90.10
2019-03-23T05:19:51.240Z,90.10
2019-03-23T05:22:18.515Z,90.20
2019-03-23T05:24:39.730Z,90.30
2019-03-23T05:27:00.969Z,90.10
2019-03-23T05:29:22.361Z,90.10
2019-03-23T05:31:43.533Z,90.00
2019-03-23T05:34:04.791Z,89.90
2019-03-23T05:36:25.988Z,90.00
2019-03-23T05:38:47.507Z,90.10
2019-03-23T05:41:08.776Z,90.00
2019-03-23T05:43:30.105Z,90.00
2019-03-23T05:45:51.306Z,89.80
2019-03-23T05:48:12.504Z,89.70
2019-03-23T05:50:33.723Z,90.00
2019-03-23T05:52:54.986Z,90.10
2019-03-23T05:55:16.193Z,90.00
2019-03-23T05:57:37.911Z,90.10
2019-03-23T06:00:00.359Z,90.00
2019-03-23T06:02:21.819Z,89.60
2019-03-23T06:04:43.102Z,89.60
2019-03-23T06:07:04.272Z,89.40
2019-03-23T06:09:25.484Z,88.80
2019-03-23T06:11:46.654Z,88.40
2019-03-23T06:14:07.839Z,88.50
2019-03-23T06:16:29.028Z,89.00
2019-03-23T06:18:50.332Z,89.10
2019-03-23T06:21:11.535Z,89.10
2019-03-23T06:23:32.737Z,88.80
2019-03-23T06:25:53.939Z,88.70
2019-03-23T06:28:15.145Z,88.50
2019-03-23T06:30:36.373Z,88.60
2019-03-23T06:32:59.321Z,88.20
2019-03-23T06:35:20.700Z,88.00
2019-03-23T06:37:42.209Z,87.80
2019-03-23T06:40:06.740Z,87.50
2019-03-23T06:42:28.068Z,87.80
2019-03-23T06:44:49.433Z,87.90
2019-03-23T06:47:10.610Z,87.80
2019-03-23T06:49:31.800Z,87.20
2019-03-23T06:51:52.986Z,87.20
2019-03-23T06:54:14.182Z,86.80
2019-03-23T06:56:41.172Z,86.90
2019-03-23T06:59:02.756Z,86.10
2019-03-23T07:01:24.045Z,85.00
2019-03-23T07:03:45.469Z,84.00
2019-03-23T07:06:06.664Z,83.20
2019-03-23T07:08:32.077Z,83.40
2019-03-23T07:10:51.500Z,83.30
2019-03-23T07:13:12.700Z,82.10
2019-03-23T07:15:33.917Z,81.30
2019-03-23T07:17:55.200Z,80.40
2019-03-23T07:20:16.865Z,79.80
2019-03-23T07:22:38.067Z,79.20
2019-03-23T07:24:59.292Z,78.40
2019-03-23T07:27:20.494Z,78.10
2019-03-23T07:29:41.727Z,77.20
2019-03-23T07:32:05.928Z,77.10
2019-03-23T07:34:26.080Z,75.60
2019-03-23T07:36:47.358Z,75.00
2019-03-23T07:39:08.695Z,74.00
2019-03-23T07:41:29.973Z,73.00
2019-03-23T07:43:51.453Z,72.50
2019-03-23T07:46:12.642Z,71.80
2019-03-23T07:48:33.822Z,69.80
2019-03-23T07:50:55.034Z,69.30
2019-03-23T07:53:16.316Z,69.40
2019-03-23T07:55:37.523Z,67.50
2019-03-23T07:57:58.726Z,67.70
2019-03-23T08:00:21.034Z,66.90
2019-03-23T08:02:42.325Z,66.30
2019-03-23T08:05:05.858Z,66.50
2019-03-23T08:07:27.069Z,66.20
2019-03-23T08:09:48.276Z,63.30
2019-03-23T08:12:09.457Z,63.30
2019-03-23T08:14:30.675Z,63.00
2019-03-23T08:16:51.861Z,63.20
2019-03-23T08:19:14.140Z,61.90
2019-03-23T08:21:35.346Z,61.30
2019-03-23T08:23:56.614Z,61.00
2019-03-23T08:26:17.831Z,59.60
2019-03-23T08:28:39.028Z,58.10
2019-03-23T08:31:02.139Z,59.10
2019-03-23T08:33:29.451Z,58.20
2019-03-23T08:35:50.631Z,57.90
2019-03-23T08:38:11.818Z,58.00
2019-03-23T08:40:33.119Z,57.90
2019-03-23T08:42:55.992Z,57.30
2019-03-23T08:45:17.223Z,55.30
2019-03-23T08:47:38.397Z,55.00
2019-03-23T08:49:59.716Z,55.00
2019-03-23T08:52:20.985Z,54.90
2019-03-23T08:54:42.289Z,54.80
2019-03-23T08:57:03.483Z,55.10
2019-03-23T08:59:24.859Z,54.80
2019-03-23T09:01:46.059Z,54.90
2019-03-23T09:04:07.245Z,54.30
2019-03-23T09:06:28.553Z,54.40
2019-03-23T09:08:49.726Z,53.30
2019-03-23T09:11:20.173Z,54.00
2019-03-23T09:13:40.477Z,53.50
2019-03-23T09:15:57.087Z,53.50
2019-03-23T09:18:18.283Z,52.90
2019-03-23T09:20:39.466Z,53.10
2019-03-23T09:23:00.650Z,52.70
2019-03-23T09:25:21.848Z,52.30
2019-03-23T09:27:43.060Z,52.20
2019-03-23T09:30:07.869Z,49.90
2019-03-23T09:32:29.078Z,51.10
2019-03-23T09:34:50.280Z,50.50
2019-03-23T09:37:11.757Z,50.20
2019-03-23T09:39:32.952Z,51.50
2019-03-23T09:41:54.162Z,50.40
2019-03-23T09:44:15.339Z,49.70
2019-03-23T09:46:36.632Z,49.20
2019-03-23T09:48:57.828Z,49.50
2019-03-23T09:51:19.022Z,49.30
2019-03-23T09:53:40.323Z,49.30
2019-03-23T09:56:01.511Z,48.20
2019-03-23T09:58:22.689Z,48.30
2019-03-23T10:00:44.232Z,49.30
2019-03-23T10:03:05.411Z,48.80
2019-03-23T10:05:26.600Z,48.30
2019-03-23T10:07:47.784Z,48.50
2019-03-23T10:10:09.004Z,47.20
2019-03-23T10:12:30.236Z,47.20
2019-03-23T10:14:51.475Z,47.60
2019-03-23T10:17:12.712Z,47.80
2019-03-23T10:19:35.039Z,47.70
2019-03-23T10:21:56.227Z,47.30
2019-03-23T10:24:17.413Z,46.60
2019-03-23T10:26:38.640Z,47.00
2019-03-23T10:28:59.821Z,46.60
2019-03-23T10:31:21.020Z,46.80
2019-03-23T10:33:42.323Z,46.40
2019-03-23T10:36:03.544Z,46.20
2019-03-23T10:38:24.751Z,45.60
2019-03-23T10:40:47.075Z,45.30
2019-03-23T10:43:08.264Z,45.40
2019-03-23T10:45:29.482Z,44.90
2019-03-23T10:47:50.843Z,44.60
2019-03-23T10:50:12.204Z,44.50
2019-03-23T10:52:33.534Z,43.80
2019-03-23T10:54:54.692Z,43.40
2019-03-23T10:57:15.894Z,42.50
2019-03-23T10:59:37.091Z,42.40
2019-03-23T11:01:58.644Z,43.00
2019-03-23T11:04:19.857Z,42.90
2019-03-23T11:06:41.115Z,43.20
2019-03-23T11:09:04.411Z,41.20
2019-03-23T11:11:25.999Z,41.10
2019-03-23T11:13:47.196Z,40.40
2019-03-23T11:16:08.519Z,41.60
2019-03-23T11:18:29.706Z,40.90
2019-03-23T11:20:50.894Z,42.00
2019-03-23T11:23:12.106Z,41.10
2019-03-23T11:25:37.322Z,42.20
2019-03-23T11:27:58.593Z,40.60
2019-03-23T11:30:19.800Z,40.50
2019-03-23T11:32:41.099Z,39.80
2019-03-23T11:35:04.881Z,38.90
2019-03-23T11:37:26.252Z,39.30
2019-03-23T11:39:47.504Z,39.30
2019-03-23T11:42:15.598Z,40.30
2019-03-23T11:44:45.594Z,41.10
2019-03-23T11:47:06.873Z,41.00
2019-03-23T11:49:31.290Z,40.10
2019-03-23T11:51:52.519Z,40.40
2019-03-23T11:54:22.814Z,40.20
2019-03-23T11:56:44.018Z,38.10
2019-03-23T11:59:05.208Z,38.70
2019-03-23T12:01:26.465Z,39.30
2019-03-23T12:03:47.849Z,39.30
2019-03-23T12:06:09.053Z,38.90
2019-03-23T12:08:30.243Z,38.50
2019-03-23T12:10:51.432Z,38.80
2019-03-23T12:13:12.915Z,39.10
2019-03-23T12:15:34.124Z,38.50
2019-03-23T12:17:55.323Z,37.40
2019-03-23T12:20:16.527Z,36.80
2019-03-23T12:22:37.753Z,37.40
2019-03-23T12:24:58.951Z,37.00
2019-03-23T12:27:20.469Z,36.70
2019-03-23T12:29:41.677Z,37.20
2019-03-23T12:32:03.122Z,37.10
2019-03-23T12:34:24.434Z,36.00
2019-03-23T12:36:45.627Z,36.30
2019-03-23T12:39:06.829Z,36.20
2019-03-23T12:41:29.000Z,36.90
2019-03-23T12:43:50.224Z,36.50
2019-03-23T12:46:11.472Z,36.30
2019-03-23T12:48:32.686Z,37.10
2019-03-23T12:50:53.974Z,35.60
2019-03-23T12:53:15.187Z,35.60
2019-03-23T12:55:36.548Z,36.00
2019-03-23T12:57:57.775Z,34.50
2019-03-23T13:00:20.231Z,35.30
2019-03-23T13:02:41.465Z,35.40
2019-03-23T13:05:05.131Z,34.90
2019-03-23T13:07:26.362Z,35.10
2019-03-23T13:09:47.558Z,34.80
2019-03-23T13:12:08.744Z,34.50
2019-03-23T13:14:29.930Z,35.00
2019-03-23T13:16:51.150Z,35.80
2019-03-23T13:19:12.423Z,34.70
2019-03-23T13:21:33.739Z,34.30
2019-03-23T13:23:55.620Z,34.00
2019-03-23T13:26:16.872Z,35.10
2019-03-23T13:28:38.219Z,34.80
2019-03-23T13:30:59.711Z,34.50
2019-03-23T13:33:21.152Z,34.80
2019-03-23T13:35:42.659Z,35.50
2019-03-23T13:38:03.988Z,35.10
2019-03-23T13:40:25.306Z,35.00
2019-03-23T13:42:46.650Z,34.40
2019-03-23T13:45:09.003Z,35.00
2019-03-23T13:47:30.327Z,35.00
2019-03-23T13:49:53.332Z,34.40
2019-03-23T13:52:14.674Z,34.60
2019-03-23T13:54:36.048Z,33.30
2019-03-23T13:56:57.504Z,32.40
2019-03-23T13:59:18.752Z,32.30
2019-03-23T14:01:40.011Z,32.40
2019-03-23T14:04:01.203Z,32.90
2019-03-23T14:06:22.408Z,33.00
2019-03-23T14:08:43.704Z,33.40
2019-03-23T14:11:04.880Z,33.00
2019-03-23T14:13:27.782Z,33.50
2019-03-23T14:15:49.887Z,33.30
2019-03-23T14:18:11.088Z,34.30
2019-03-23T14:20:32.282Z,33.80
2019-03-23T14:23:02.306Z,34.70
2019-03-23T14:25:16.589Z,33.70
2019-03-23T14:27:37.774Z,32.80
2019-03-23T14:29:59.015Z,33.20
2019-03-23T14:32:20.214Z,34.10
2019-03-23T14:34:41.422Z,33.50
2019-03-23T14:37:02.716Z,34.30
2019-03-23T14:39:24.035Z,33.90
2019-03-23T14:41:45.231Z,34.00
2019-03-23T14:44:06.484Z,33.40
2019-03-23T14:46:27.678Z,33.60
2019-03-23T14:48:48.896Z,34.20
2019-03-23T14:51:10.072Z,33.50
2019-03-23T14:53:31.274Z,33.70
2019-03-23T14:55:52.477Z,34.20
2019-03-23T14:58:13.686Z,33.70
2019-03-23T15:00:34.987Z,33.50
2019-03-23T15:02:56.676Z,35.00
2019-03-23T15:05:18.059Z,35.60
2019-03-23T15:07:39.281Z,36.10
2019-03-23T15:10:01.002Z,36.50
2019-03-23T15:12:22.302Z,36.70
2019-03-23T15:14:43.632Z,36.80
2019-03-23T15:17:04.969Z,37.00
2019-03-23T15:19:26.168Z,36.30
2019-03-23T15:21:47.362Z,36.80
2019-03-23T15:24:08.581Z,35.90
2019-03-23T15:26:29.857Z,36.50
2019-03-23T15:28:54.834Z,37.10
2019-03-23T15:31:16.008Z,37.00
2019-03-23T15:33:37.205Z,37.40
2019-03-23T15:35:58.418Z,37.30
2019-03-23T15:38:26.075Z,37.60
2019-03-23T15:40:47.503Z,37.80
2019-03-23T15:43:08.685Z,37.90
2019-03-23T15:45:29.997Z,38.20
2019-03-23T15:47:51.194Z,38.40
2019-03-23T15:50:12.853Z,38.10
2019-03-23T15:52:34.031Z,38.50
2019-03-23T15:54:55.291Z,38.30
2019-03-23T15:57:16.560Z,38.30
2019-03-23T15:59:37.764Z,38.50
2019-03-23T16:01:59.003Z,39.00
2019-03-23T16:04:20.217Z,39.00
2019-03-23T16:06:41.514Z,39.10
2019-03-23T16:09:05.327Z,39.60
2019-03-23T16:11:26.519Z,39.90
2019-03-23T16:13:47.722Z,40.20
2019-03-23T16:16:08.935Z,39.80
2019-03-23T16:18:30.129Z,40.10
2019-03-23T16:20:51.416Z,40.20
2019-03-23T16:23:12.676Z,40.50
2019-03-23T16:25:33.885Z,41.10
2019-03-23T16:27:55.177Z,42.20
2019-03-23T16:30:20.184Z,41.40
2019-03-23T16:32:41.792Z,41.80
2019-03-23T16:35:05.337Z,42.40
2019-03-23T16:37:26.512Z,42.70
2019-03-23T16:39:48.228Z,43.20
2019-03-23T16:42:09.422Z,43.60
2019-03-23T16:44:30.734Z,43.70
2019-03-23T16:46:52.308Z,43.50
2019-03-23T16:49:13.529Z,43.70
2019-03-23T16:51:34.732Z,44.00
2019-03-23T16:53:55.996Z,44.40
2019-03-23T16:56:17.209Z,44.20
2019-03-23T16:58:39.649Z,44.50
2019-03-23T17:01:03.200Z,45.60
2019-03-23T17:03:24.650Z,44.70
2019-03-23T17:05:45.926Z,44.60
2019-03-23T17:08:08.368Z,44.50
2019-03-23T17:10:29.653Z,44.10
2019-03-23T17:12:55.362Z,44.00
2019-03-23T17:15:14.056Z,43.90
2019-03-23T17:17:35.957Z,43.80
2019-03-23T17:19:57.139Z,43.50
2019-03-23T17:22:18.343Z,43.60
2019-03-23T17:24:39.543Z,44.40
2019-03-23T17:27:00.740Z,44.00
2019-03-23T17:29:21.920Z,44.10
2019-03-23T17:31:43.110Z,44.30
2019-03-23T17:34:04.311Z,44.50
2019-03-23T17:36:25.579Z,44.80
2019-03-23T17:38:48.082Z,45.00
2019-03-23T17:41:10.344Z,45.20
2019-03-23T17:43:32.052Z,45.50
2019-03-23T17:45:53.249Z,46.00
2019-03-23T17:48:14.419Z,47.20
2019-03-23T17:50:35.632Z,48.00
2019-03-23T17:52:56.816Z,48.20
2019-03-23T17:55:18.021Z,48.40
2019-03-23T17:57:39.218Z,48.70
2019-03-23T18:00:00.453Z,50.00
2019-03-23T18:02:21.757Z,49.70
2019-03-23T18:04:42.943Z,49.90
2019-03-23T18:07:04.238Z,50.60
2019-03-23T18:09:25.739Z,50.90
2019-03-23T18:11:47.097Z,50.50
2019-03-23T18:14:11.956Z,51.40
2019-03-23T18:16:33.522Z,54.70
2019-03-23T18:18:55.171Z,55.30
2019-03-23T18:21:16.742Z,57.60
2019-03-23T18:23:38.035Z,57.50
2019-03-23T18:25:59.236Z,58.10
2019-03-23T18:28:20.765Z,59.10
2019-03-23T18:30:43.866Z,59.60
2019-03-23T18:33:05.765Z,60.40
2019-03-23T18:35:27.276Z,61.00
2019-03-23T18:37:48.985Z,61.50
2019-03-23T18:40:10.293Z,61.80
2019-03-23T18:42:31.492Z,62.00
2019-03-23T18:44:52.688Z,62.90
2019-03-23T18:47:13.891Z,63.30
2019-03-23T18:49:35.083Z,63.60
2019-03-23T18:51:56.287Z,64.20
2019-03-23T18:54:17.565Z,65.30
2019-03-23T18:56:38.751Z,64.90
2019-03-23T18:59:00.153Z,65.10
2019-03-23T19:01:22.504Z,65.40
2019-03-23T19:03:45.860Z,65.70
2019-03-23T19:06:07.336Z,66.20
2019-03-23T19:08:44.105Z,66.40
2019-03-23T19:11:05.279Z,66.60
2019-03-23T19:13:26.491Z,66.70
2019-03-23T19:15:47.710Z,67.30
2019-03-23T19:18:09.006Z,68.40
2019-03-23T19:20:30.184Z,67.80
2019-03-23T19:22:52.586Z,67.80
2019-03-23T19:25:18.169Z,68.40
2019-03-23T19:27:36.886Z,68.30
2019-03-23T19:29:58.147Z,68.40
2019-03-23T19:32:19.362Z,68.60
2019-03-23T19:34:40.523Z,68.90
2019-03-23T19:37:07.801Z,68.90
2019-03-23T19:39:29.001Z,69.30
2019-03-23T19:41:50.249Z,69.60
2019-03-23T19:44:11.603Z,69.80
2019-03-23T19:46:32.807Z,70.10
2019-03-23T19:48:53.993Z,70.00
2019-03-23T19:51:15.201Z,70.10
2019-03-23T19:53:36.515Z,70.70
2019-03-23T19:55:57.685Z,71.20
2019-03-23T19:58:19.030Z,71.40
2019-03-23T20:00:40.309Z,71.40
2019-03-23T20:03:01.517Z,71.60
2019-03-23T20:05:22.712Z,71.70
2019-03-23T20:07:44.015Z,72.20
2019-03-23T20:10:07.501Z,72.20
2019-03-23T20:12:28.691Z,72.40
2019-03-23T20:15:09.169Z,72.80
2019-03-23T20:17:30.349Z,73.00
2019-03-23T20:19:51.549Z,73.20
2019-03-23T20:22:12.788Z,73.50
2019-03-23T20:24:34.041Z,73.60
2019-03-23T20:26:55.551Z,74.60
2019-03-23T20:29:17.000Z,74.10
2019-03-23T20:31:38.573Z,74.20
2019-03-23T20:33:59.876Z,74.40
2019-03-23T20:36:21.060Z,74.50
2019-03-23T20:38:48.866Z,74.90
2019-03-23T20:41:10.070Z,75.00
2019-03-23T20:43:31.269Z,75.10
2019-03-23T20:45:52.431Z,75.10
2019-03-23T20:48:14.033Z,75.30
2019-03-23T20:50:36.981Z,75.50
2019-03-23T20:52:58.779Z,75.70
2019-03-23T20:55:25.035Z,77.00
2019-03-23T20:57:46.227Z,77.30
2019-03-23T21:00:07.420Z,77.30
2019-03-23T21:02:28.616Z,77.50
2019-03-23T21:04:49.808Z,78.20
2019-03-23T21:07:11.034Z,78.50
2019-03-23T21:09:33.433Z,78.70
2019-03-23T21:11:54.607Z,79.50
2019-03-23T21:14:20.251Z,79.70
2019-03-23T21:16:38.930Z,79.30
2019-03-23T21:19:00.211Z,79.40
2019-03-23T21:21:21.396Z,80.00
2019-03-23T21:23:42.604Z,80.60
2019-03-23T21:26:04.014Z,80.80
2019-03-23T21:28:25.215Z,80.60
2019-03-23T21:30:46.397Z,80.70
2019-03-23T21:33:07.580Z,81.10
2019-03-23T21:35:28.789Z,81.90
2019-03-23T21:37:50.238Z,82.00
2019-03-23T21:40:11.629Z,82.20
2019-03-23T21:42:32.826Z,82.30
2019-03-23T21:44:55.202Z,82.30
2019-03-23T21:47:16.392Z,82.60
2019-03-23T21:49:37.571Z,83.00
2019-03-23T21:51:58.761Z,83.40
2019-03-23T21:54:19.943Z,83.90
2019-03-23T21:56:41.129Z,83.90
2019-03-23T21:59:02.321Z,84.00
2019-03-23T22:01:24.441Z,84.50
2019-03-23T22:03:45.639Z,85.10
2019-03-23T22:06:06.847Z,85.00
2019-03-23T22:08:28.025Z,85.10
2019-03-23T22:10:49.219Z,84.90
2019-03-23T22:13:10.405Z,85.00
2019-03-23T22:15:32.918Z,85.00
2019-03-23T22:17:54.099Z,85.20
2019-03-23T22:20:15.319Z,85.30
2019-03-23T22:22:36.491Z,85.40
2019-03-23T22:24:57.699Z,85.60
2019-03-23T22:27:24.368Z,85.90
2019-03-23T22:29:45.584Z,85.70
2019-03-23T22:32:06.753Z,86.80
2019-03-23T22:34:27.955Z,86.10
2019-03-23T22:36:49.352Z,86.00
2019-03-23T22:39:10.583Z,86.00
2019-03-23T22:41:32.080Z,86.10
2019-03-23T22:43:53.272Z,86.20
2019-03-23T22:46:16.442Z,86.00
2019-03-23T22:48:37.612Z,86.00
2019-03-23T22:50:58.827Z,86.30
2019-03-23T22:53:20.014Z,87.10
2019-03-23T22:55:41.209Z,87.10
2019-03-23T22:58:02.401Z,87.10
2019-03-23T23:00:26.027Z,87.50
2019-03-23T23:02:49.204Z,87.50
2019-03-23T23:05:10.596Z,87.70
2019-03-23T23:07:31.804Z,87.70
2019-03-23T23:09:53.000Z,87.60
2019-03-23T23:12:14.179Z,87.80
2019-03-23T23:14:37.084Z,88.00
2019-03-23T23:16:58.459Z,87.80
2019-03-23T23:19:19.632Z,87.90
2019-03-23T23:21:40.827Z,88.00
2019-03-23T23:24:01.992Z,88.60
2019-03-23T23:26:23.292Z,88.30
2019-03-23T23:28:45.618Z,88.60
2019-03-23T23:31:07.833Z,88.60
2019-03-23T23:33:29.126Z,89.00
2019-03-23T23:35:50.311Z,88.60
2019-03-23T23:38:11.495Z,88.90
2019-03-23T23:40:32.806Z,89.60
2019-03-23T23:42:54.002Z,89.20
2019-03-23T23:45:22.427Z,89.90
2019-03-23T23:47:43.612Z,89.90
2019-03-23T23:50:06.209Z,89.90
2019-03-23T23:52:27.478Z,89.70
2019-03-23T23:54:48.769Z,90.10
2019-03-23T23:57:09.968Z,90.30
2019-03-23T23:59:31.158Z,90.20
